createdAt,value
2019-02-28T20:40:26.241Z,17.60
2019-02-28T20:41:26.225Z,20.30
2019-02-28T20:42:26.137Z,25.90
2019-02-28T20:43:26.208Z,26.80
2019-02-28T20:44:26.233Z,25.90
2019-02-28T20:45:26.209Z,27.20
2019-02-28T20:46:26.181Z,25.70
2019-02-28T20:47:26.108Z,26.10
2019-02-28T20:48:26.153Z,27.20
2019-02-28T20:49:26.109Z,22.80
2019-02-28T20:50:26.252Z,24.10
2019-02-28T20:51:26.096Z,26.80
2019-02-28T20:52:26.054Z,24.20
2019-02-28T20:53:26.072Z,26.80
2019-02-28T20:54:26.097Z,26.70
2019-02-28T20:55:26.034Z,23.10
2019-02-28T20:56:26.883Z,24.40
2019-02-28T20:57:25.999Z,24.10
2019-02-28T20:58:25.941Z,22.50
2019-02-28T20:59:26.031Z,19.30
2019-02-28T21:00:25.971Z,21.00
2019-02-28T21:01:26.033Z,20.50
2019-02-28T21:02:25.934Z,19.90
2019-02-28T21:03:26.043Z,18.40
2019-02-28T21:04:25.905Z,18.30
2019-02-28T21:05:25.874Z,18.10
2019-02-28T21:06:25.866Z,17.40
2019-02-28T21:07:25.890Z,16.40
2019-02-28T21:08:25.947Z,18.70
2019-02-28T21:09:26.011Z,17.50
2019-02-28T21:10:26.360Z,16.70
2019-02-28T21:11:25.906Z,15.00
2019-02-28T21:12:25.763Z,18.90
2019-02-28T21:13:25.757Z,16.50
2019-02-28T21:14:25.783Z,16.40
2019-02-28T21:15:25.731Z,14.90
2019-02-28T21:16:25.739Z,14.90
2019-02-28T21:17:29.413Z,17.90
2019-02-28T21:18:25.697Z,16.80
2019-02-28T21:19:25.692Z,14.20
2019-02-28T21:20:25.734Z,16.80
2019-02-28T21:21:25.696Z,15.20
2019-02-28T21:22:25.655Z,19.00
2019-02-28T21:23:25.643Z,17.60
2019-02-28T21:24:25.650Z,13.40
2019-02-28T21:25:25.677Z,13.90
2019-02-28T21:26:25.609Z,17.10
2019-02-28T21:27:25.653Z,16.20
2019-02-28T21:28:25.589Z,14.10
2019-02-28T21:29:25.578Z,15.60
2019-02-28T21:30:25.668Z,13.20
2019-02-28T21:31:25.566Z,20.40
2019-02-28T21:32:25.547Z,20.50
2019-02-28T21:33:25.541Z,18.60
2019-02-28T21:34:25.558Z,18.90
2019-02-28T21:35:25.531Z,18.70
2019-02-28T21:36:25.500Z,19.50
2019-02-28T21:37:25.525Z,21.60
2019-02-28T21:38:25.480Z,21.40
2019-02-28T21:39:25.497Z,18.60
2019-02-28T21:40:25.508Z,21.90
2019-02-28T21:41:25.450Z,20.20
2019-02-28T21:42:25.441Z,20.20
2019-02-28T21:43:25.459Z,16.50
2019-02-28T21:44:25.430Z,18.40
2019-02-28T21:45:25.421Z,13.50
2019-02-28T21:46:25.420Z,12.80
2019-02-28T21:47:25.382Z,13.60
2019-02-28T21:48:25.373Z,12.50
2019-02-28T21:49:25.360Z,16.60
2019-02-28T21:50:25.367Z,16.30
2019-02-28T21:51:25.359Z,13.60
2019-02-28T21:52:25.341Z,12.10
2019-02-28T21:53:25.327Z,13.80
2019-02-28T21:54:25.307Z,13.50
2019-02-28T21:55:25.294Z,13.00
2019-02-28T21:56:25.338Z,14.00
2019-02-28T21:57:25.323Z,16.50
2019-02-28T21:58:25.260Z,17.10
2019-02-28T21:59:25.309Z,21.30
2019-02-28T22:00:25.251Z,21.20
2019-02-28T22:01:25.252Z,21.60
2019-02-28T22:02:25.219Z,22.10
2019-02-28T22:03:25.209Z,20.40
2019-02-28T22:04:25.223Z,24.50
2019-02-28T22:05:25.217Z,26.90
2019-02-28T22:06:25.192Z,25.00
2019-02-28T22:07:25.169Z,25.20
2019-02-28T22:08:25.174Z,26.20
2019-02-28T22:09:25.142Z,28.00
2019-02-28T22:10:25.131Z,31.30
2019-02-28T22:11:25.148Z,26.80
2019-02-28T22:12:25.109Z,22.90
2019-02-28T22:13:25.100Z,24.50
2019-02-28T22:14:25.092Z,27.30
2019-02-28T22:15:25.078Z,22.10
2019-02-28T22:16:25.087Z,24.90
2019-02-28T22:17:25.064Z,24.90
2019-02-28T22:18:25.072Z,23.60
2019-02-28T22:19:25.034Z,19.50
2019-02-28T22:20:25.032Z,19.10
2019-02-28T22:21:25.013Z,20.90
2019-02-28T22:22:25.026Z,22.30
2019-02-28T22:23:24.992Z,16.20
2019-02-28T22:24:24.980Z,19.20
2019-02-28T22:25:24.969Z,17.90
2019-02-28T22:26:24.958Z,18.20
2019-02-28T22:27:24.964Z,18.20
2019-02-28T22:28:24.933Z,19.80
2019-02-28T22:29:24.931Z,18.30
2019-02-28T22:30:24.914Z,17.40
2019-02-28T22:31:32.127Z,14.60
2019-02-28T22:32:24.922Z,17.50
2019-02-28T22:33:24.920Z,14.70
2019-02-28T22:34:24.908Z,12.90
2019-02-28T22:35:24.858Z,15.80
2019-02-28T22:36:24.847Z,11.30
2019-02-28T22:37:24.884Z,12.70
2019-02-28T22:38:24.829Z,12.00
2019-02-28T22:39:24.837Z,12.70
2019-02-28T22:40:24.804Z,12.80
2019-02-28T22:41:24.796Z,11.00
2019-02-28T22:42:24.788Z,13.20
2019-02-28T22:43:24.841Z,12.20
2019-02-28T22:44:24.763Z,10.60
2019-02-28T22:45:24.751Z,9.90
2019-02-28T22:46:24.744Z,8.70
2019-02-28T22:47:24.728Z,8.20
2019-02-28T22:48:24.739Z,8.60
2019-02-28T22:49:24.740Z,9.60
2019-02-28T22:50:24.695Z,7.20
2019-02-28T22:51:24.691Z,8.40
2019-02-28T22:52:24.927Z,6.50
2019-02-28T22:53:24.685Z,7.50
2019-02-28T22:54:24.650Z,8.50
2019-02-28T22:55:24.648Z,7.50
2019-02-28T22:56:24.660Z,4.80
2019-02-28T22:57:24.624Z,6.80
2019-02-28T22:58:24.631Z,7.70
2019-02-28T22:59:24.598Z,5.90
2019-02-28T23:00:24.606Z,4.70
2019-02-28T23:01:24.582Z,6.60
2019-02-28T23:02:24.571Z,7.70
2019-02-28T23:03:24.601Z,7.60
2019-02-28T23:04:24.559Z,5.40
2019-02-28T23:05:24.536Z,6.00
2019-02-28T23:06:24.523Z,5.30
2019-02-28T23:07:24.509Z,7.40
2019-02-28T23:08:24.499Z,5.60
2019-02-28T23:09:24.513Z,5.60
2019-02-28T23:10:24.485Z,5.40
2019-02-28T23:11:24.469Z,4.30
2019-02-28T23:12:24.463Z,5.10
2019-02-28T23:13:24.453Z,4.60
2019-02-28T23:14:24.458Z,4.00
2019-02-28T23:15:24.433Z,5.10
2019-02-28T23:16:24.417Z,5.20
2019-02-28T23:17:24.400Z,7.60
2019-02-28T23:18:24.392Z,4.20
2019-02-28T23:19:24.412Z,5.50
2019-02-28T23:20:24.404Z,5.70
2019-02-28T23:21:24.360Z,3.20
2019-02-28T23:22:24.355Z,5.40
2019-02-28T23:23:24.336Z,4.80
2019-02-28T23:24:24.350Z,5.50
2019-02-28T23:25:24.341Z,5.50
2019-02-28T23:26:24.302Z,4.80
2019-02-28T23:27:24.303Z,4.60
2019-02-28T23:28:24.286Z,5.40
2019-02-28T23:29:24.285Z,4.80
2019-02-28T23:30:24.289Z,5.00
2019-02-28T23:31:24.250Z,7.40
2019-02-28T23:32:24.242Z,6.30
2019-02-28T23:33:24.228Z,5.80
2019-02-28T23:34:24.219Z,7.00
2019-02-28T23:35:24.234Z,5.30
2019-02-28T23:36:24.225Z,11.50
2019-02-28T23:37:24.184Z,7.40
2019-02-28T23:38:24.172Z,6.30
2019-02-28T23:39:24.167Z,9.20
2019-02-28T23:40:24.169Z,7.10
2019-02-28T23:41:24.148Z,6.00
2019-02-28T23:42:24.127Z,6.50
2019-02-28T23:43:24.120Z,6.80
2019-02-28T23:44:31.692Z,6.80
2019-02-28T23:45:24.149Z,6.60
2019-02-28T23:46:24.094Z,8.80
2019-02-28T23:47:24.076Z,8.10
2019-02-28T23:48:24.075Z,9.70
2019-02-28T23:49:24.056Z,6.50
2019-02-28T23:50:24.044Z,6.90
2019-02-28T23:51:24.052Z,8.10
2019-02-28T23:52:24.026Z,12.70
2019-02-28T23:53:24.051Z,8.30
2019-02-28T23:54:24.004Z,9.50
2019-02-28T23:55:23.992Z,8.10
2019-02-28T23:56:24.005Z,9.20
2019-02-28T23:57:23.975Z,8.50
2019-02-28T23:58:23.967Z,8.60
2019-02-28T23:59:23.987Z,8.90
